sensor_id;sensor_type;location;lat;lon;timestamp;pressure;altitude;pressure_sealevel;temperature;humidity
69247;BME280;56358;56.328;43.992;2024-01-16T00:01:51;99024.88;;;-6.25;79.42
69247;BME280;56358;56.328;43.992;2024-01-16T00:03:51;99038.63;;;-6.19;79.90
69247;BME280;56358;56.328;43.992;2024-01-16T00:05:52;99046.28;;;-6.13;80.12
69247;BME280;56358;56.328;43.992;2024-01-16T00:07:53;99021.03;;;-6.13;80.03
69247;BME280;56358;56.328;43.992;2024-01-16T00:09:53;99024.59;;;-6.15;80.11
69247;BME280;56358;56.328;43.992;2024-01-16T00:11:54;99039.19;;;-6.10;79.82
69247;BME280;56358;56.328;43.992;2024-01-16T00:13:55;98953.75;;;-6.57;79.90
69247;BME280;56358;56.328;43.992;2024-01-16T00:16:14;99025.13;;;-6.06;79.92
69247;BME280;56358;56.328;43.992;2024-01-16T00:18:34;99026.84;;;-6.04;79.78
69247;BME280;56358;56.328;43.992;2024-01-16T00:20:35;98993.53;;;-6.23;79.77
69247;BME280;56358;56.328;43.992;2024-01-16T00:22:36;99027.72;;;-6.04;79.74
69247;BME280;56358;56.328;43.992;2024-01-16T00:24:36;98955.84;;;-6.40;79.73
69247;BME280;56358;56.328;43.992;2024-01-16T00:26:37;99035.44;;;-6.01;80.08
69247;BME280;56358;56.328;43.992;2024-01-16T00:28:56;99006.97;;;-6.09;79.88
69247;BME280;56358;56.328;43.992;2024-01-16T00:30:57;99041.25;;;-5.94;79.89
69247;BME280;56358;56.328;43.992;2024-01-16T00:32:58;99026.38;;;-5.91;79.67
69247;BME280;56358;56.328;43.992;2024-01-16T00:34:58;99031.53;;;-5.89;80.01
69247;BME280;56358;56.328;43.992;2024-01-16T00:36:59;99030.41;;;-5.82;79.99
69247;BME280;56358;56.328;43.992;2024-01-16T00:39:00;99015.06;;;-5.91;79.86
69247;BME280;56358;56.328;43.992;2024-01-16T00:41:00;99005.47;;;-5.91;80.01
69247;BME280;56358;56.328;43.992;2024-01-16T00:43:19;99024.88;;;-5.73;79.87
69247;BME280;56358;56.328;43.992;2024-01-16T00:45:20;99031.75;;;-5.70;79.90
69247;BME280;56358;56.328;43.992;2024-01-16T00:47:22;98931.09;;;-6.28;80.03
69247;BME280;56358;56.328;43.992;2024-01-16T00:49:23;98971.09;;;-6.02;79.97
69247;BME280;56358;56.328;43.992;2024-01-16T00:51:23;99020.41;;;-5.69;79.95
69247;BME280;56358;56.328;43.992;2024-01-16T00:53:26;99029.00;;;-5.67;80.12
69247;BME280;56358;56.328;43.992;2024-01-16T00:55:27;98954.00;;;-6.11;79.90
69247;BME280;56358;56.328;43.992;2024-01-16T00:57:28;99016.78;;;-5.65;80.19
69247;BME280;56358;56.328;43.992;2024-01-16T00:59:29;99014.94;;;-5.63;80.18
69247;BME280;56358;56.328;43.992;2024-01-16T01:01:29;98948.44;;;-6.01;80.17
69247;BME280;56358;56.328;43.992;2024-01-16T01:03:30;99015.69;;;-5.59;80.46
69247;BME280;56358;56.328;43.992;2024-01-16T01:05:30;98959.50;;;-5.95;80.12
69247;BME280;56358;56.328;43.992;2024-01-16T01:07:31;99012.06;;;-5.55;80.28
69247;BME280;56358;56.328;43.992;2024-01-16T01:09:32;99019.00;;;-5.54;80.43
69247;BME280;56358;56.328;43.992;2024-01-16T01:11:33;99016.44;;;-5.56;80.47
69247;BME280;56358;56.328;43.992;2024-01-16T01:13:33;98914.13;;;-6.14;80.89
69247;BME280;56358;56.328;43.992;2024-01-16T01:15:34;99018.94;;;-5.52;80.97
69247;BME280;56358;56.328;43.992;2024-01-16T01:17:35;99011.22;;;-5.56;81.00
69247;BME280;56358;56.328;43.992;2024-01-16T01:19:36;99008.56;;;-5.54;81.12
69247;BME280;56358;56.328;43.992;2024-01-16T01:21:36;98985.44;;;-5.65;81.01
69247;BME280;56358;56.328;43.992;2024-01-16T01:26:14;98995.44;;;-5.52;80.90
69247;BME280;56358;56.328;43.992;2024-01-16T01:28:15;99003.16;;;-5.49;80.98
69247;BME280;56358;56.328;43.992;2024-01-16T01:30:16;98852.91;;;-6.29;80.82
69247;BME280;56358;56.328;43.992;2024-01-16T01:32:36;99001.88;;;-5.38;80.83
69247;BME280;56358;56.328;43.992;2024-01-16T01:34:37;99009.63;;;-5.36;80.84
69247;BME280;56358;56.328;43.992;2024-01-16T01:36:38;99006.88;;;-5.31;80.86
69247;BME280;56358;56.328;43.992;2024-01-16T01:38:39;98992.84;;;-5.29;80.55
69247;BME280;56358;56.328;43.992;2024-01-16T01:40:40;98934.94;;;-5.64;80.70
69247;BME280;56358;56.328;43.992;2024-01-16T01:45:00;98991.81;;;-5.25;80.51
69247;BME280;56358;56.328;43.992;2024-01-16T01:47:01;98965.84;;;-5.29;80.61
69247;BME280;56358;56.328;43.992;2024-01-16T01:49:02;98995.69;;;-5.11;80.43
69247;BME280;56358;56.328;43.992;2024-01-16T01:51:03;98994.72;;;-5.09;80.36
69247;BME280;56358;56.328;43.992;2024-01-16T01:53:04;98987.56;;;-5.03;80.35
69247;BME280;56358;56.328;43.992;2024-01-16T01:55:06;98983.03;;;-5.00;80.25
69247;BME280;56358;56.328;43.992;2024-01-16T01:59:28;98986.53;;;-4.99;80.23
69247;BME280;56358;56.328;43.992;2024-01-16T02:01:31;98982.75;;;-4.92;80.03
69247;BME280;56358;56.328;43.992;2024-01-16T02:03:39;98988.72;;;-4.89;80.16
69247;BME280;56358;56.328;43.992;2024-01-16T02:05:41;98985.09;;;-4.84;80.20
69247;BME280;56358;56.328;43.992;2024-01-16T02:07:43;98984.88;;;-4.80;80.03
69247;BME280;56358;56.328;43.992;2024-01-16T02:09:44;98970.66;;;-4.95;80.03
69247;BME280;56358;56.328;43.992;2024-01-16T02:11:44;98985.56;;;-4.75;80.09
69247;BME280;56358;56.328;43.992;2024-01-16T02:13:46;98918.94;;;-5.09;80.08
69247;BME280;56358;56.328;43.992;2024-01-16T02:15:47;98991.28;;;-4.65;80.03
69247;BME280;56358;56.328;43.992;2024-01-16T02:17:48;98988.50;;;-4.60;80.01
69247;BME280;56358;56.328;43.992;2024-01-16T02:20:09;98993.59;;;-4.57;79.99
69247;BME280;56358;56.328;43.992;2024-01-16T02:22:13;98992.50;;;-4.51;79.95
69247;BME280;56358;56.328;43.992;2024-01-16T02:24:34;98950.38;;;-4.66;79.72
69247;BME280;56358;56.328;43.992;2024-01-16T02:26:35;98980.00;;;-4.45;79.87
69247;BME280;56358;56.328;43.992;2024-01-16T02:28:36;98891.09;;;-4.88;79.85
69247;BME280;56358;56.328;43.992;2024-01-16T02:30:37;98971.63;;;-4.31;79.82
69247;BME280;56358;56.328;43.992;2024-01-16T02:32:37;98953.44;;;-4.34;79.66
69247;BME280;56358;56.328;43.992;2024-01-16T02:34:38;98731.88;;;-5.57;79.63
69247;BME280;56358;56.328;43.992;2024-01-16T02:36:39;98940.53;;;-4.39;79.85
69247;BME280;56358;56.328;43.992;2024-01-16T02:38:40;98965.94;;;-4.20;79.72
69247;BME280;56358;56.328;43.992;2024-01-16T02:40:41;98867.84;;;-4.73;79.47
69247;BME280;56358;56.328;43.992;2024-01-16T02:42:41;98919.75;;;-4.42;79.52
69247;BME280;56358;56.328;43.992;2024-01-16T02:47:04;98958.09;;;-4.20;79.62
69247;BME280;56358;56.328;43.992;2024-01-16T02:49:07;98955.41;;;-4.18;79.58
69247;BME280;56358;56.328;43.992;2024-01-16T02:51:08;98814.09;;;-5.01;79.75
69247;BME280;56358;56.328;43.992;2024-01-16T02:53:28;98958.69;;;-4.13;79.76
69247;BME280;56358;56.328;43.992;2024-01-16T02:55:47;98942.53;;;-4.23;79.72
69247;BME280;56358;56.328;43.992;2024-01-16T02:57:48;98955.03;;;-4.09;79.84
69247;BME280;56358;56.328;43.992;2024-01-16T02:59:48;98926.16;;;-4.28;79.67
69247;BME280;56358;56.328;43.992;2024-01-16T03:01:49;98959.78;;;-3.98;79.67
69247;BME280;56358;56.328;43.992;2024-01-16T03:03:49;98956.19;;;-3.96;79.71
69247;BME280;56358;56.328;43.992;2024-01-16T03:05:50;98864.31;;;-4.51;79.87
69247;BME280;56358;56.328;43.992;2024-01-16T03:07:51;98957.75;;;-3.92;80.12
69247;BME280;56358;56.328;43.992;2024-01-16T03:09:51;98933.53;;;-3.97;79.88
69247;BME280;56358;56.328;43.992;2024-01-16T03:11:52;98937.47;;;-3.87;79.96
69247;BME280;56358;56.328;43.992;2024-01-16T03:16:13;98878.00;;;-4.24;79.99
69247;BME280;56358;56.328;43.992;2024-01-16T03:18:14;98946.75;;;-3.79;79.96
69247;BME280;56358;56.328;43.992;2024-01-16T03:20:15;98927.38;;;-3.75;80.11
69247;BME280;56358;56.328;43.992;2024-01-16T03:22:16;98944.06;;;-3.78;80.16
69247;BME280;56358;56.328;43.992;2024-01-16T03:24:17;98932.59;;;-3.75;79.98
69247;BME280;56358;56.328;43.992;2024-01-16T03:26:18;98929.81;;;-3.71;80.24
69247;BME280;56358;56.328;43.992;2024-01-16T03:28:18;98922.72;;;-3.68;80.40
69247;BME280;56358;56.328;43.992;2024-01-16T03:30:19;98846.22;;;-4.15;80.18
69247;BME280;56358;56.328;43.992;2024-01-16T03:32:20;98931.28;;;-3.65;80.15
69247;BME280;56358;56.328;43.992;2024-01-16T03:34:20;98913.34;;;-3.74;80.26
69247;BME280;56358;56.328;43.992;2024-01-16T03:36:21;98930.09;;;-3.58;80.27
69247;BME280;56358;56.328;43.992;2024-01-16T03:41:00;98896.34;;;-3.84;80.15
69247;BME280;56358;56.328;43.992;2024-01-16T03:43:01;98936.78;;;-3.50;80.25
69247;BME280;56358;56.328;43.992;2024-01-16T03:45:02;98936.63;;;-3.47;80.39
69247;BME280;56358;56.328;43.992;2024-01-16T03:47:04;98937.50;;;-3.47;80.35
69247;BME280;56358;56.328;43.992;2024-01-16T03:49:05;98938.19;;;-3.43;80.26
69247;BME280;56358;56.328;43.992;2024-01-16T03:51:05;98939.75;;;-3.39;80.16
69247;BME280;56358;56.328;43.992;2024-01-16T03:53:07;98944.91;;;-3.38;80.35
69247;BME280;56358;56.328;43.992;2024-01-16T03:55:09;98937.00;;;-3.36;80.17
69247;BME280;56358;56.328;43.992;2024-01-16T03:57:09;98927.22;;;-3.32;80.30
69247;BME280;56358;56.328;43.992;2024-01-16T03:59:10;98798.44;;;-4.20;80.19
69247;BME280;56358;56.328;43.992;2024-01-16T04:01:11;98947.97;;;-3.28;80.18
69247;BME280;56358;56.328;43.992;2024-01-16T04:03:13;98862.19;;;-3.81;80.25
69247;BME280;56358;56.328;43.992;2024-01-16T04:05:32;98951.25;;;-3.23;80.33
69247;BME280;56358;56.328;43.992;2024-01-16T04:07:33;98964.19;;;-3.20;80.75
69247;BME280;56358;56.328;43.992;2024-01-16T04:09:52;98960.66;;;-3.18;80.54
69247;BME280;56358;56.328;43.992;2024-01-16T04:11:53;98958.88;;;-3.18;80.77
69247;BME280;56358;56.328;43.992;2024-01-16T04:13:54;98969.44;;;-3.20;80.80
69247;BME280;56358;56.328;43.992;2024-01-16T04:15:55;98906.25;;;-3.51;80.96
69247;BME280;56358;56.328;43.992;2024-01-16T04:17:55;98968.22;;;-3.12;81.11
69247;BME280;56358;56.328;43.992;2024-01-16T04:19:56;98962.91;;;-3.11;81.01
69247;BME280;56358;56.328;43.992;2024-01-16T04:21:57;98955.03;;;-3.11;81.23
69247;BME280;56358;56.328;43.992;2024-01-16T04:23:57;98935.44;;;-3.21;81.12
69247;BME280;56358;56.328;43.992;2024-01-16T04:25:58;98851.38;;;-3.74;81.32
69247;BME280;56358;56.328;43.992;2024-01-16T04:27:59;98963.69;;;-3.09;81.34
69247;BME280;56358;56.328;43.992;2024-01-16T04:30:00;98939.69;;;-3.18;81.65
69247;BME280;56358;56.328;43.992;2024-01-16T04:32:01;98979.28;;;-3.06;81.63
69247;BME280;56358;56.328;43.992;2024-01-16T04:34:01;98958.47;;;-3.09;81.55
69247;BME280;56358;56.328;43.992;2024-01-16T04:36:02;98967.81;;;-3.03;81.47
69247;BME280;56358;56.328;43.992;2024-01-16T04:38:03;98950.38;;;-3.04;80.83
69247;BME280;56358;56.328;43.992;2024-01-16T04:40:04;98944.09;;;-3.00;80.93
69247;BME280;56358;56.328;43.992;2024-01-16T04:42:05;98823.59;;;-3.78;80.88
69247;BME280;56358;56.328;43.992;2024-01-16T04:44:06;98912.41;;;-3.14;80.79
69247;BME280;56358;56.328;43.992;2024-01-16T04:46:07;98944.69;;;-2.95;80.42
69247;BME280;56358;56.328;43.992;2024-01-16T04:48:08;98923.47;;;-3.08;80.26
69247;BME280;56358;56.328;43.992;2024-01-16T04:50:09;98920.59;;;-3.03;80.18
69247;BME280;56358;56.328;43.992;2024-01-16T04:52:28;98949.66;;;-2.89;79.82
69247;BME280;56358;56.328;43.992;2024-01-16T04:54:29;98910.22;;;-3.24;79.28
69247;BME280;56358;56.328;43.992;2024-01-16T04:56:29;98954.00;;;-2.88;79.23
69247;BME280;56358;56.328;43.992;2024-01-16T04:58:30;98954.75;;;-2.86;79.13
69247;BME280;56358;56.328;43.992;2024-01-16T05:00:31;98915.78;;;-3.12;78.93
69247;BME280;56358;56.328;43.992;2024-01-16T05:02:33;98875.50;;;-3.29;78.81
69247;BME280;56358;56.328;43.992;2024-01-16T05:04:37;98977.16;;;-2.78;78.77
69247;BME280;56358;56.328;43.992;2024-01-16T05:06:38;98969.50;;;-2.83;78.57
69247;BME280;56358;56.328;43.992;2024-01-16T05:08:39;98957.38;;;-2.86;78.48
69247;BME280;56358;56.328;43.992;2024-01-16T05:10:39;98963.19;;;-2.79;78.28
69247;BME280;56358;56.328;43.992;2024-01-16T05:12:41;98974.94;;;-2.68;78.08
69247;BME280;56358;56.328;43.992;2024-01-16T05:14:42;98936.47;;;-2.87;78.26
69247;BME280;56358;56.328;43.992;2024-01-16T05:16:42;98973.78;;;-2.63;78.18
69247;BME280;56358;56.328;43.992;2024-01-16T05:18:43;98947.53;;;-2.80;77.85
69247;BME280;56358;56.328;43.992;2024-01-16T05:20:44;98979.91;;;-2.62;77.79
69247;BME280;56358;56.328;43.992;2024-01-16T05:22:45;98958.56;;;-2.74;77.86
69247;BME280;56358;56.328;43.992;2024-01-16T05:24:46;98985.09;;;-2.61;77.68
69247;BME280;56358;56.328;43.992;2024-01-16T05:26:46;98900.63;;;-3.06;77.95
69247;BME280;56358;56.328;43.992;2024-01-16T05:28:47;98986.78;;;-2.60;77.96
69247;BME280;56358;56.328;43.992;2024-01-16T05:30:47;98989.25;;;-2.57;77.97
69247;BME280;56358;56.328;43.992;2024-01-16T05:32:48;98995.28;;;-2.55;78.08
69247;BME280;56358;56.328;43.992;2024-01-16T05:34:48;98981.22;;;-2.54;77.84
69247;BME280;56358;56.328;43.992;2024-01-16T05:36:49;98922.72;;;-2.92;77.71
69247;BME280;56358;56.328;43.992;2024-01-16T05:39:08;98998.91;;;-2.57;77.58
69247;BME280;56358;56.328;43.992;2024-01-16T05:41:09;98983.53;;;-2.65;77.86
69247;BME280;56358;56.328;43.992;2024-01-16T05:43:10;98986.63;;;-2.57;77.88
69247;BME280;56358;56.328;43.992;2024-01-16T05:45:10;98993.44;;;-2.53;77.92
69247;BME280;56358;56.328;43.992;2024-01-16T05:47:11;98968.78;;;-2.67;77.86
69247;BME280;56358;56.328;43.992;2024-01-16T05:49:12;98982.31;;;-2.58;77.78
69247;BME280;56358;56.328;43.992;2024-01-16T05:51:12;98883.56;;;-3.14;77.77
69247;BME280;56358;56.328;43.992;2024-01-16T05:53:13;98991.38;;;-2.46;77.92
69247;BME280;56358;56.328;43.992;2024-01-16T05:55:14;98999.06;;;-2.43;77.38
69247;BME280;56358;56.328;43.992;2024-01-16T05:57:15;99000.72;;;-2.40;77.34
69247;BME280;56358;56.328;43.992;2024-01-16T05:59:16;98999.00;;;-2.41;77.32
69247;BME280;56358;56.328;43.992;2024-01-16T06:01:16;98993.69;;;-2.40;77.44
69247;BME280;56358;56.328;43.992;2024-01-16T06:03:17;99000.50;;;-2.36;77.29
69247;BME280;56358;56.328;43.992;2024-01-16T06:05:18;98977.06;;;-2.58;77.15
69247;BME280;56358;56.328;43.992;2024-01-16T06:07:18;98993.25;;;-2.30;77.02
69247;BME280;56358;56.328;43.992;2024-01-16T06:09:19;98987.13;;;-2.31;76.74
69247;BME280;56358;56.328;43.992;2024-01-16T06:11:29;98955.34;;;-2.42;76.73
69247;BME280;56358;56.328;43.992;2024-01-16T06:13:30;98963.03;;;-2.39;76.81
69247;BME280;56358;56.328;43.992;2024-01-16T06:15:33;98988.47;;;-2.22;76.78
69247;BME280;56358;56.328;43.992;2024-01-16T06:17:33;98997.19;;;-2.22;76.41
69247;BME280;56358;56.328;43.992;2024-01-16T06:19:34;98996.28;;;-2.21;76.10
69247;BME280;56358;56.328;43.992;2024-01-16T06:21:35;98901.66;;;-2.72;75.90
69247;BME280;56358;56.328;43.992;2024-01-16T06:23:35;98944.38;;;-2.50;76.31
69247;BME280;56358;56.328;43.992;2024-01-16T06:27:55;98975.56;;;-2.27;76.22
69247;BME280;56358;56.328;43.992;2024-01-16T06:29:56;98979.72;;;-2.23;76.06
69247;BME280;56358;56.328;43.992;2024-01-16T06:31:57;98986.31;;;-2.14;75.77
69247;BME280;56358;56.328;43.992;2024-01-16T06:33:57;98910.63;;;-2.58;75.57
69247;BME280;56358;56.328;43.992;2024-01-16T06:35:58;98984.53;;;-2.13;75.63
69247;BME280;56358;56.328;43.992;2024-01-16T06:37:58;98983.06;;;-2.19;75.60
69247;BME280;56358;56.328;43.992;2024-01-16T06:39:59;98983.44;;;-2.09;75.46
69247;BME280;56358;56.328;43.992;2024-01-16T06:42:00;98926.00;;;-2.50;75.39
69247;BME280;56358;56.328;43.992;2024-01-16T06:44:01;98977.28;;;-2.08;75.61
69247;BME280;56358;56.328;43.992;2024-01-16T06:46:01;98981.69;;;-2.09;75.42
69247;BME280;56358;56.328;43.992;2024-01-16T06:48:03;98972.84;;;-2.08;75.67
69247;BME280;56358;56.328;43.992;2024-01-16T06:50:04;98964.16;;;-2.08;75.25
69247;BME280;56358;56.328;43.992;2024-01-16T06:52:06;98920.44;;;-2.27;75.32
69247;BME280;56358;56.328;43.992;2024-01-16T06:54:07;98978.81;;;-2.04;75.35
69247;BME280;56358;56.328;43.992;2024-01-16T06:56:08;98951.72;;;-2.05;75.17
69247;BME280;56358;56.328;43.992;2024-01-16T06:58:09;98959.34;;;-2.00;75.15
69247;BME280;56358;56.328;43.992;2024-01-16T07:00:11;98896.34;;;-2.35;75.02
69247;BME280;56358;56.328;43.992;2024-01-16T07:02:12;98976.50;;;-1.93;74.88
69247;BME280;56358;56.328;43.992;2024-01-16T07:04:13;98968.63;;;-1.93;74.75
69247;BME280;56358;56.328;43.992;2024-01-16T07:06:14;98963.97;;;-1.88;74.71
69247;BME280;56358;56.328;43.992;2024-01-16T07:10:54;98974.47;;;-1.88;74.25
69247;BME280;56358;56.328;43.992;2024-01-16T07:12:55;98979.50;;;-1.83;74.20
69247;BME280;56358;56.328;43.992;2024-01-16T07:14:56;98981.53;;;-1.88;74.11
69247;BME280;56358;56.328;43.992;2024-01-16T07:16:57;98986.69;;;-1.87;73.96
69247;BME280;56358;56.328;43.992;2024-01-16T07:18:58;98954.97;;;-1.99;73.95
69247;BME280;56358;56.328;43.992;2024-01-16T07:20:58;98969.47;;;-1.92;73.96
69247;BME280;56358;56.328;43.992;2024-01-16T07:23:17;98980.06;;;-1.94;74.19
69247;BME280;56358;56.328;43.992;2024-01-16T07:27:37;98981.53;;;-1.88;74.55
69247;BME280;56358;56.328;43.992;2024-01-16T07:29:38;98971.41;;;-1.96;74.23
69247;BME280;56358;56.328;43.992;2024-01-16T07:31:39;98981.34;;;-1.85;74.08
69247;BME280;56358;56.328;43.992;2024-01-16T07:33:39;98974.25;;;-1.83;73.89
69247;BME280;56358;56.328;43.992;2024-01-16T07:35:40;98940.97;;;-2.00;73.68
69247;BME280;56358;56.328;43.992;2024-01-16T07:37:41;98978.34;;;-1.77;73.86
69247;BME280;56358;56.328;43.992;2024-01-16T07:39:43;98968.22;;;-1.85;73.61
69247;BME280;56358;56.328;43.992;2024-01-16T07:44:03;98961.56;;;-1.75;73.39
69247;BME280;56358;56.328;43.992;2024-01-16T07:46:04;98978.50;;;-1.63;73.11
69247;BME280;56358;56.328;43.992;2024-01-16T07:48:05;98961.34;;;-1.70;72.63
69247;BME280;56358;56.328;43.992;2024-01-16T07:50:24;98962.06;;;-1.50;72.69
69247;BME280;56358;56.328;43.992;2024-01-16T07:52:24;98965.16;;;-1.42;72.21
69247;BME280;56358;56.328;43.992;2024-01-16T07:54:25;98984.25;;;-1.39;72.38
69247;BME280;56358;56.328;43.992;2024-01-16T07:56:26;98882.31;;;-1.83;71.99
69247;BME280;56358;56.328;43.992;2024-01-16T07:58:27;98925.09;;;-1.47;72.07
69247;BME280;56358;56.328;43.992;2024-01-16T08:00:46;98920.81;;;-1.48;71.54
69247;BME280;56358;56.328;43.992;2024-01-16T08:02:46;98935.16;;;-1.22;71.63
69247;BME280;56358;56.328;43.992;2024-01-16T08:04:47;98958.00;;;-1.07;71.02
69247;BME280;56358;56.328;43.992;2024-01-16T08:06:48;98956.22;;;-1.06;71.14
69247;BME280;56358;56.328;43.992;2024-01-16T08:08:49;98875.75;;;-1.58;70.94
69247;BME280;56358;56.328;43.992;2024-01-16T08:13:09;98962.06;;;-1.01;70.42
69247;BME280;56358;56.328;43.992;2024-01-16T08:15:10;98945.19;;;-0.97;70.49
69247;BME280;56358;56.328;43.992;2024-01-16T08:17:11;98954.19;;;-1.01;69.97
69247;BME280;56358;56.328;43.992;2024-01-16T08:19:12;98940.69;;;-1.11;70.63
69247;BME280;56358;56.328;43.992;2024-01-16T08:21:13;98871.88;;;-1.51;70.55
69247;BME280;56358;56.328;43.992;2024-01-16T08:23:14;98944.75;;;-1.21;70.10
69247;BME280;56358;56.328;43.992;2024-01-16T08:25:15;98946.16;;;-1.31;70.57
69247;BME280;56358;56.328;43.992;2024-01-16T08:29:37;98941.59;;;-1.28;70.55
69247;BME280;56358;56.328;43.992;2024-01-16T08:31:38;98939.41;;;-1.20;70.98
69247;BME280;56358;56.328;43.992;2024-01-16T08:33:39;98941.59;;;-1.28;70.88
69247;BME280;56358;56.328;43.992;2024-01-16T08:35:39;98944.75;;;-1.21;70.95
69247;BME280;56358;56.328;43.992;2024-01-16T08:37:40;98890.19;;;-1.49;71.10
69247;BME280;56358;56.328;43.992;2024-01-16T08:39:41;98927.84;;;-1.33;70.94
69247;BME280;56358;56.328;43.992;2024-01-16T08:41:41;98926.66;;;-1.27;70.88
69247;BME280;56358;56.328;43.992;2024-01-16T08:43:42;98919.56;;;-1.25;71.12
69247;BME280;56358;56.328;43.992;2024-01-16T08:45:43;98925.31;;;-1.35;71.38
69247;BME280;56358;56.328;43.992;2024-01-16T08:47:44;98841.91;;;-1.80;71.36
69247;BME280;56358;56.328;43.992;2024-01-16T08:49:44;98833.16;;;-1.81;71.35
69247;BME280;56358;56.328;43.992;2024-01-16T08:51:45;98846.66;;;-1.71;71.83
69247;BME280;56358;56.328;43.992;2024-01-16T08:53:46;98896.38;;;-1.35;71.94
69247;BME280;56358;56.328;43.992;2024-01-16T08:55:47;98905.88;;;-1.48;72.41
69247;BME280;56358;56.328;43.992;2024-01-16T08:57:47;98896.63;;;-1.55;72.74
69247;BME280;56358;56.328;43.992;2024-01-16T08:59:48;98817.44;;;-1.98;72.81
69247;BME280;56358;56.328;43.992;2024-01-16T09:01:48;98891.16;;;-1.68;73.84
69247;BME280;56358;56.328;43.992;2024-01-16T09:03:49;98892.53;;;-1.61;74.12
69247;BME280;56358;56.328;43.992;2024-01-16T09:08:28;98902.69;;;-1.71;75.04
69247;BME280;56358;56.328;43.992;2024-01-16T09:10:29;98862.81;;;-2.12;75.63
69247;BME280;56358;56.328;43.992;2024-01-16T09:14:49;98896.00;;;-1.94;77.59
69247;BME280;56358;56.328;43.992;2024-01-16T09:16:50;98809.44;;;-2.46;77.57
69247;BME280;56358;56.328;43.992;2024-01-16T09:18:51;98877.66;;;-2.11;78.34
69247;BME280;56358;56.328;43.992;2024-01-16T09:20:51;98896.25;;;-2.16;78.88
69247;BME280;56358;56.328;43.992;2024-01-16T09:22:52;98881.75;;;-2.23;78.71
69247;BME280;56358;56.328;43.992;2024-01-16T09:24:53;98842.00;;;-2.33;79.69
69247;BME280;56358;56.328;43.992;2024-01-16T09:26:53;98795.75;;;-2.71;79.90
69247;BME280;56358;56.328;43.992;2024-01-16T09:28:54;98868.94;;;-2.29;80.50
69247;BME280;56358;56.328;43.992;2024-01-16T09:30:55;98767.78;;;-2.88;80.48
69247;BME280;56358;56.328;43.992;2024-01-16T09:32:59;98885.38;;;-2.26;80.62
69247;BME280;56358;56.328;43.992;2024-01-16T09:34:59;98838.75;;;-2.38;80.21
69247;BME280;56358;56.328;43.992;2024-01-16T09:37:04;98867.28;;;-2.14;80.51
69247;BME280;56358;56.328;43.992;2024-01-16T09:39:06;98837.06;;;-2.39;80.50
69247;BME280;56358;56.328;43.992;2024-01-16T09:41:20;98831.50;;;-2.33;80.70
69247;BME280;56358;56.328;43.992;2024-01-16T09:45:41;98852.88;;;-2.23;81.36
69247;BME280;56358;56.328;43.992;2024-01-16T09:47:42;98851.88;;;-2.21;81.18
69247;BME280;56358;56.328;43.992;2024-01-16T09:49:46;98838.66;;;-2.19;81.06
69247;BME280;56358;56.328;43.992;2024-01-16T09:51:47;98815.22;;;-2.40;81.19
69247;BME280;56358;56.328;43.992;2024-01-16T09:53:48;98826.94;;;-2.29;81.40
69247;BME280;56358;56.328;43.992;2024-01-16T09:55:50;98809.97;;;-2.40;81.80
69247;BME280;56358;56.328;43.992;2024-01-16T09:57:54;98761.97;;;-2.59;82.23
69247;BME280;56358;56.328;43.992;2024-01-16T09:59:56;98816.59;;;-2.32;82.59
69247;BME280;56358;56.328;43.992;2024-01-16T10:01:58;98805.31;;;-2.34;82.59
69247;BME280;56358;56.328;43.992;2024-01-16T10:04:01;98828.25;;;-2.21;82.68
69247;BME280;56358;56.328;43.992;2024-01-16T10:06:04;98808.88;;;-2.36;83.14
69247;BME280;56358;56.328;43.992;2024-01-16T10:08:06;98810.28;;;-2.46;83.72
69247;BME280;56358;56.328;43.992;2024-01-16T10:10:08;98830.72;;;-2.35;83.90
69247;BME280;56358;56.328;43.992;2024-01-16T10:12:11;98832.72;;;-2.23;84.44
69247;BME280;56358;56.328;43.992;2024-01-16T10:14:12;98839.66;;;-2.22;84.07
69247;BME280;56358;56.328;43.992;2024-01-16T10:16:12;98767.94;;;-2.56;83.94
69247;BME280;56358;56.328;43.992;2024-01-16T10:18:26;98821.72;;;-2.13;83.81
69247;BME280;56358;56.328;43.992;2024-01-16T10:20:34;98812.94;;;-2.12;83.96
69247;BME280;56358;56.328;43.992;2024-01-16T10:22:35;98830.75;;;-2.02;83.69
69247;BME280;56358;56.328;43.992;2024-01-16T10:24:36;98816.56;;;-2.15;82.76
69247;BME280;56358;56.328;43.992;2024-01-16T10:26:37;98812.44;;;-2.03;82.92
69247;BME280;56358;56.328;43.992;2024-01-16T10:28:42;98833.19;;;-1.98;82.84
69247;BME280;56358;56.328;43.992;2024-01-16T10:30:43;98740.25;;;-2.45;82.17
69247;BME280;56358;56.328;43.992;2024-01-16T10:32:44;98809.13;;;-2.07;81.90
69247;BME280;56358;56.328;43.992;2024-01-16T10:34:44;98820.59;;;-1.92;81.89
69247;BME280;56358;56.328;43.992;2024-01-16T10:36:45;98823.38;;;-1.95;81.35
69247;BME280;56358;56.328;43.992;2024-01-16T10:38:46;98821.84;;;-1.99;81.51
69247;BME280;56358;56.328;43.992;2024-01-16T10:40:47;98814.75;;;-1.97;81.51
69247;BME280;56358;56.328;43.992;2024-01-16T10:44:58;98803.13;;;-2.09;81.48
69247;BME280;56358;56.328;43.992;2024-01-16T10:47:10;98796.38;;;-1.97;81.36
69247;BME280;56358;56.328;43.992;2024-01-16T10:49:12;98731.06;;;-2.37;81.83
69247;BME280;56358;56.328;43.992;2024-01-16T10:51:15;98796.94;;;-1.92;81.54
69247;BME280;56358;56.328;43.992;2024-01-16T10:53:36;98804.34;;;-1.82;81.94
69247;BME280;56358;56.328;43.992;2024-01-16T10:55:50;98789.75;;;-1.88;82.29
69247;BME280;56358;56.328;43.992;2024-01-16T10:57:55;98789.25;;;-1.95;82.31
69247;BME280;56358;56.328;43.992;2024-01-16T11:02:09;98786.44;;;-1.92;82.19
69247;BME280;56358;56.328;43.992;2024-01-16T11:04:12;98785.28;;;-1.86;81.75
69247;BME280;56358;56.328;43.992;2024-01-16T11:06:15;98792.78;;;-1.96;81.74
69247;BME280;56358;56.328;43.992;2024-01-16T11:08:16;98799.94;;;-1.98;81.47
69247;BME280;56358;56.328;43.992;2024-01-16T11:10:17;98783.56;;;-2.03;81.28
69247;BME280;56358;56.328;43.992;2024-01-16T11:12:19;98784.88;;;-2.12;81.65
69247;BME280;56358;56.328;43.992;2024-01-16T11:14:23;98714.06;;;-2.63;81.23
69247;BME280;56358;56.328;43.992;2024-01-16T11:16:26;98789.47;;;-2.15;81.54
69247;BME280;56358;56.328;43.992;2024-01-16T11:18:46;98767.41;;;-2.29;81.60
69247;BME280;56358;56.328;43.992;2024-01-16T11:21:09;98777.97;;;-2.13;81.63